Time;durP1;ratioP1;P1;durP2;ratioP2;P2;SDS_P1;SDS_P2;PMS_P1;PMS_P2;Temp;Humidity;BMP_temperature;BMP_pressure;BME280_temperature;BME280_humidity;BME280_pressure;Samples;Min_cycle;Max_cycle;Signal;HPM_P1;HPM_P2
2024/04/19 00:01:32;;;;;;;5.35;4.38;;;6.50;99.90;;;;;;5486496;26;19995;-74
2024/04/19 00:03:59;;;;;;;3.08;2.88;;;6.40;99.90;;;;;;5459208;26;20479;-75
2024/04/19 00:06:26;;;;;;;7.75;4.00;;;6.50;99.90;;;;;;5489404;26;20315;-74
2024/04/19 00:08:54;;;;;;;3.70;3.40;;;6.40;99.90;;;;;;5489418;26;20502;-74
2024/04/19 00:11:21;;;;;;;4.50;4.05;;;6.30;99.90;;;;;;5490921;26;19998;-74
2024/04/19 00:13:48;;;;;;;3.58;3.38;;;6.30;99.90;;;;;;5489283;26;20332;-74
2024/04/19 00:16:15;;;;;;;6.07;5.65;;;6.20;99.90;;;;;;5490256;26;20009;-74
2024/04/19 00:18:43;;;;;;;4.25;3.92;;;6.20;99.90;;;;;;5488839;26;20013;-73
2024/04/19 00:21:10;;;;;;;2.40;2.28;;;6.20;99.90;;;;;;5458659;26;19998;-73
2024/04/19 00:23:37;;;;;;;3.63;3.33;;;6.20;99.90;;;;;;5458319;26;20339;-73
2024/04/19 00:26:04;;;;;;;5.65;5.03;;;6.20;99.90;;;;;;5457386;26;19998;-74
2024/04/19 00:28:37;;;;;;;6.40;5.90;;;6.20;99.90;;;;;;5488901;26;20006;-73
2024/04/19 00:31:05;;;;;;;6.35;5.00;;;6.20;99.90;;;;;;5458615;26;20006;-74
2024/04/19 00:33:32;;;;;;;4.93;4.25;;;6.20;99.90;;;;;;5458337;26;20009;-73
2024/04/19 00:35:59;;;;;;;4.72;4.32;;;6.20;99.90;;;;;;5488644;26;20328;-74
2024/04/19 00:38:26;;;;;;;5.72;5.22;;;6.20;99.90;;;;;;5490347;26;20066;-74
2024/04/19 00:40:54;;;;;;;6.20;5.30;;;6.20;99.90;;;;;;5458481;26;20002;-73
2024/04/19 00:43:21;;;;;;;5.38;4.82;;;6.30;99.90;;;;;;5458835;26;20322;-74
2024/04/19 00:45:50;;;;;;;4.10;3.63;;;6.20;99.90;;;;;;5488885;26;19999;-73
2024/04/19 00:48:19;;;;;;;6.55;5.95;;;6.30;99.90;;;;;;5458947;26;20006;-74
2024/04/19 00:50:57;;;;;;;3.50;3.25;;;6.30;99.90;;;;;;5490630;26;20491;-74
2024/04/19 00:53:29;;;;;;;4.25;3.85;;;6.20;99.90;;;;;;5488072;26;20029;-74
2024/04/19 00:55:57;;;;;;;7.75;7.25;;;6.20;99.90;;;;;;5488135;26;20078;-74
2024/04/19 00:58:28;;;;;;;6.95;6.35;;;6.30;99.90;;;;;;5488165;26;20010;-74
2024/04/19 01:01:05;;;;;;;7.57;5.18;;;6.20;99.90;;;;;;5490079;26;20047;-75
2024/04/19 01:03:32;;;;;;;7.50;6.82;;;6.40;99.90;;;;;;5488081;26;20017;-75
2024/04/19 01:05:59;;;;;;;4.82;4.43;;;6.20;99.90;;;;;;5489888;26;20017;-74
2024/04/19 01:08:28;;;;;;;6.20;5.70;;;6.20;99.90;;;;;;5487781;26;19998;-74
2024/04/19 01:10:56;;;;;;;4.15;3.60;;;6.30;99.90;;;;;;5489778;26;20002;-75
2024/04/19 01:13:23;;;;;;;4.75;4.35;;;6.20;99.90;;;;;;5489592;26;19998;-75
2024/04/19 01:15:50;;;;;;;6.95;6.22;;;6.30;99.90;;;;;;5457855;26;20534;-74
2024/04/19 01:18:18;;;;;;;5.35;4.72;;;6.30;99.90;;;;;;5489840;26;20459;-74
2024/04/19 01:20:46;;;;;;;7.13;5.93;;;6.30;99.90;;;;;;5488544;26;20027;-74
2024/04/19 01:23:17;;;;;;;5.07;4.25;;;6.30;99.90;;;;;;5487973;26;20006;-74
2024/04/19 01:25:46;;;;;;;5.95;4.50;;;6.30;99.90;;;;;;5490257;26;20008;-74
2024/04/19 01:28:13;;;;;;;5.80;5.35;;;6.40;99.90;;;;;;5490053;26;20005;-74
2024/04/19 01:30:43;;;;;;;6.72;6.03;;;6.30;99.90;;;;;;5489480;26;19994;-74
2024/04/19 01:33:11;;;;;;;6.10;4.80;;;6.40;99.90;;;;;;5489425;26;20413;-74
2024/04/19 01:35:39;;;;;;;6.20;5.72;;;6.40;99.90;;;;;;5489343;26;20005;-74
2024/04/19 01:38:06;;;;;;;4.03;3.72;;;6.40;99.90;;;;;;5487324;26;19998;-75
2024/04/19 01:40:33;;;;;;;6.18;5.55;;;6.40;99.90;;;;;;5487473;26;19998;-74
2024/04/19 01:43:00;;;;;;;5.15;4.72;;;6.50;99.90;;;;;;5487773;26;20082;-75
2024/04/19 01:45:27;;;;;;;5.32;4.82;;;6.50;99.90;;;;;;5489011;26;20447;-74
2024/04/19 01:47:55;;;;;;;8.45;5.30;;;6.50;99.90;;;;;;5487426;26;20025;-74
2024/04/19 01:50:22;;;;;;;7.00;6.22;;;6.50;99.90;;;;;;5457263;26;20467;-74
2024/04/19 01:52:49;;;;;;;5.03;4.55;;;6.50;99.90;;;;;;5487344;26;20420;-74
2024/04/19 01:55:17;;;;;;;6.07;5.47;;;6.50;99.90;;;;;;5487565;26;20526;-74
2024/04/19 01:57:47;;;;;;;;;;;6.50;99.90;;;;;;5458800;26;20323;-74
2024/04/19 02:00:14;;;;;;;4.72;3.83;;;6.50;99.90;;;;;;5489605;26;19958;-73
2024/04/19 02:02:41;;;;;;;5.53;5.03;;;6.60;99.90;;;;;;5489013;26;20014;-74
2024/04/19 02:05:09;;;;;;;6.72;6.13;;;6.60;99.90;;;;;;5457734;26;20006;-74
2024/04/19 02:07:36;;;;;;;5.15;4.72;;;6.60;99.90;;;;;;5489000;26;20010;-74
2024/04/19 02:10:03;;;;;;;6.75;6.25;;;6.70;99.90;;;;;;5487787;26;19994;-74
2024/04/19 02:12:30;;;;;;;5.90;5.22;;;6.60;99.90;;;;;;5486750;26;19998;-74
2024/04/19 02:14:57;;;;;;;4.57;4.28;;;6.60;99.90;;;;;;5487176;26;20073;-74
2024/04/19 02:17:24;;;;;;;5.45;5.03;;;6.60;99.90;;;;;;5486686;26;19998;-74
2024/04/19 02:19:51;;;;;;;5.45;4.97;;;6.60;99.90;;;;;;5486908;26;20026;-74
2024/04/19 02:22:18;;;;;;;5.43;4.80;;;6.60;99.90;;;;;;5486833;26;19998;-74
2024/04/19 02:24:45;;;;;;;3.97;3.67;;;6.60;99.90;;;;;;5488379;26;19998;-74
2024/04/19 02:30:52;;;;;;;5.75;5.25;;;6.70;99.90;;;;;;5488690;26;19998;-74
2024/04/19 02:32:51;;;;;;;2.60;2.40;;;6.70;99.90;;;;;;5488842;26;20030;-74
2024/04/19 02:35:18;;;;;;;5.43;4.93;;;6.70;99.90;;;;;;5488504;26;20456;-74
2024/04/19 02:37:47;;;;;;;6.30;5.80;;;6.70;99.90;;;;;;5488236;26;20006;-74
2024/04/19 02:40:14;;;;;;;6.95;6.35;;;6.70;99.90;;;;;;5487014;26;19994;-74
2024/04/19 02:42:41;;;;;;;4.88;4.40;;;6.70;99.90;;;;;;5488150;26;20129;-74
2024/04/19 02:45:08;;;;;;;5.70;5.30;;;6.70;99.90;;;;;;5488486;26;19998;-74
2024/04/19 02:47:36;;;;;;;3.90;3.55;;;6.80;99.90;;;;;;5486736;26;20009;-74
2024/04/19 02:50:03;;;;;;;5.07;4.72;;;6.80;99.90;;;;;;5490063;26;20009;-74
2024/04/19 02:52:30;;;;;;;5.15;4.85;;;6.80;99.90;;;;;;5491372;26;20134;-74
2024/04/19 02:54:57;;;;;;;8.45;7.88;;;6.90;99.90;;;;;;5491790;26;20006;-74
2024/04/19 02:57:26;;;;;;;6.68;6.22;;;6.90;99.90;;;;;;5491772;26;20002;-74
2024/04/19 02:59:53;;;;;;;6.35;5.72;;;6.90;99.90;;;;;;5489675;26;20009;-74
2024/04/19 03:02:20;;;;;;;5.63;5.07;;;6.90;99.90;;;;;;5460722;26;20003;-74
2024/04/19 03:04:48;;;;;;;5.30;4.80;;;6.90;99.90;;;;;;5467889;26;20002;-74
2024/04/19 03:07:15;;;;;;;5.03;4.63;;;7.00;99.90;;;;;;5483697;26;19998;-74
2024/04/19 03:09:42;;;;;;;2.92;2.72;;;7.00;99.90;;;;;;5485244;26;20010;-75
2024/04/19 03:12:10;;;;;;;5.35;4.95;;;7.00;99.90;;;;;;5490724;26;20418;-75
2024/04/19 03:14:37;;;;;;;6.72;6.22;;;7.00;99.90;;;;;;5489708;26;19994;-75
2024/04/19 03:17:04;;;;;;;5.68;5.28;;;7.00;99.90;;;;;;5520315;26;20066;-75
2024/04/19 03:19:41;;;;;;;3.72;3.50;;;7.10;99.90;;;;;;5518208;26;20034;-74
2024/04/19 03:22:08;;;;;;;5.47;5.07;;;7.10;99.90;;;;;;5520621;26;19994;-74
2024/04/19 03:24:35;;;;;;;3.17;2.97;;;7.10;99.90;;;;;;5520040;26;20447;-74
2024/04/19 03:27:03;;;;;;;5.50;5.10;;;7.10;99.90;;;;;;5491807;26;20022;-74
2024/04/19 03:29:56;;;;;;;4.90;4.60;;;7.20;99.90;;;;;;5489267;26;20328;-75
2024/04/19 03:32:24;;;;;;;4.55;4.18;;;7.20;99.90;;;;;;5491566;26;20006;-75
2024/04/19 03:34:52;;;;;;;3.63;3.42;;;7.20;99.90;;;;;;5490887;26;20037;-75
2024/04/19 03:37:19;;;;;;;6.80;3.20;;;7.20;99.90;;;;;;5491228;26;20002;-74
2024/04/19 03:39:47;;;;;;;3.53;3.33;;;7.20;99.90;;;;;;5489091;26;19998;-75
2024/04/19 03:42:18;;;;;;;3.65;3.35;;;7.20;99.90;;;;;;5489237;26;20009;-74
2024/04/19 03:47:31;;;;;;;2.83;2.72;;;7.30;99.90;;;;;;5491009;26;19998;-75
2024/04/19 03:49:59;;;;;;;3.53;3.33;;;7.30;99.90;;;;;;5490804;26;19994;-75
2024/04/19 03:52:26;;;;;;;3.80;3.60;;;7.30;99.90;;;;;;5491382;26;20005;-75
2024/04/19 03:54:54;;;;;;;3.55;3.22;;;7.30;99.90;;;;;;5488819;26;19994;-74
2024/04/19 03:57:21;;;;;;;4.03;3.78;;;7.40;99.90;;;;;;5519402;26;19994;-75
2024/04/19 03:59:48;;;;;;;3.28;3.15;;;7.40;99.90;;;;;;5519553;26;20066;-74
2024/04/19 04:02:15;;;;;;;2.33;2.22;;;7.40;99.90;;;;;;5490899;26;20009;-74
2024/04/19 04:04:55;;;;;;;2.17;2.08;;;7.50;99.90;;;;;;5461916;26;20057;-74
2024/04/19 04:07:22;;;;;;;2.35;2.25;;;7.50;99.90;;;;;;5490685;26;20078;-74
2024/04/19 04:09:49;;;;;;;1.60;1.50;;;7.80;99.90;;;;;;5490541;26;20074;-75
2024/04/19 04:12:16;;;;;;;1.10;1.10;;;7.60;99.90;;;;;;5490638;26;20069;-74
2024/04/19 04:14:43;;;;;;;2.65;2.45;;;7.60;99.90;;;;;;5489034;26;20005;-74
2024/04/19 04:17:11;;;;;;;0.90;0.90;;;7.70;99.90;;;;;;5490618;26;20009;-74
2024/04/19 04:19:38;;;;;;;2.63;2.42;;;7.70;99.90;;;;;;5519485;26;20483;-74
2024/04/19 04:22:05;;;;;;;1.75;1.65;;;7.80;99.90;;;;;;5488427;26;20323;-74
2024/04/19 04:24:32;;;;;;;2.17;2.08;;;7.90;99.90;;;;;;5488819;26;19998;-74
2024/04/19 04:26:59;;;;;;;2.95;2.75;;;7.90;99.90;;;;;;5518966;26;20086;-74
2024/04/19 04:29:28;;;;;;;1.52;1.52;;;8.00;99.90;;;;;;5489044;26;19994;-74
2024/04/19 04:31:55;;;;;;;1.92;1.83;;;8.00;99.90;;;;;;5488827;26;19998;-74
2024/04/19 04:34:23;;;;;;;2.45;2.35;;;8.00;99.90;;;;;;5489215;26;20339;-74
2024/04/19 04:36:50;;;;;;;3.25;2.45;;;8.10;99.90;;;;;;5518886;26;20009;-74
2024/04/19 04:39:17;;;;;;;2.08;1.98;;;8.10;99.90;;;;;;5490751;26;19998;-74
2024/04/19 04:41:44;;;;;;;2.22;2.13;;;8.10;99.90;;;;;;5489054;26;20439;-74
2024/04/19 04:44:11;;;;;;;2.45;2.35;;;8.20;99.90;;;;;;5519127;26;20067;-74
2024/04/19 04:46:38;;;;;;;2.53;2.35;;;8.20;99.90;;;;;;5488741;26;19998;-74
2024/04/19 04:49:06;;;;;;;3.22;3.03;;;8.30;99.90;;;;;;5488376;26;19994;-74
2024/04/19 04:51:33;;;;;;;3.97;3.38;;;8.30;99.90;;;;;;5490139;26;20454;-74
2024/04/19 04:54:01;;;;;;;4.57;2.58;;;8.40;99.90;;;;;;5489826;26;20327;-74
2024/04/19 04:56:28;;;;;;;2.53;2.35;;;8.40;99.90;;;;;;5488181;26;20006;-74
2024/04/19 04:58:55;;;;;;;5.00;1.90;;;8.40;99.90;;;;;;5489612;26;19998;-74
2024/04/19 05:01:22;;;;;;;4.53;3.40;;;8.50;99.90;;;;;;5472648;26;20006;-74
2024/04/19 05:03:50;;;;;;;4.47;3.80;;;8.60;99.90;;;;;;5452975;26;20014;-74
2024/04/19 05:06:17;;;;;;;3.50;2.97;;;8.60;99.90;;;;;;5481048;26;20002;-74
2024/04/19 05:08:44;;;;;;;5.10;3.17;;;8.70;99.90;;;;;;5451911;26;20003;-74
2024/04/19 05:11:11;;;;;;;7.47;3.25;;;8.70;99.90;;;;;;5481242;26;19999;-74
2024/04/19 05:13:38;;;;;;;7.18;4.75;;;8.80;99.90;;;;;;5450585;26;20072;-75
2024/04/19 05:16:07;;;;;;;5.15;4.72;;;8.80;99.90;;;;;;5452996;26;19999;-75
2024/04/19 05:18:34;;;;;;;5.63;4.38;;;8.80;99.90;;;;;;5422360;26;20001;-75
2024/04/19 05:21:01;;;;;;;9.10;3.47;;;8.90;99.90;;;;;;5453170;26;19995;-75
2024/04/19 05:23:28;;;;;;;8.43;4.15;;;8.90;99.90;;;;;;5451728;26;19994;-75
2024/04/19 05:25:55;;;;;;;8.23;4.28;;;9.00;99.90;;;;;;5450972;26;19999;-75
2024/04/19 05:28:22;;;;;;;8.73;3.92;;;9.10;99.90;;;;;;5451876;26;20067;-75
2024/04/19 05:30:51;;;;;;;8.25;3.88;;;9.10;99.90;;;;;;5451316;26;19995;-75
2024/04/19 05:33:18;;;;;;;9.05;4.43;;;9.20;99.90;;;;;;5421993;26;20320;-74
2024/04/19 05:35:45;;;;;;;8.60;2.83;;;9.20;99.90;;;;;;5421549;26;20337;-75
2024/04/19 05:38:12;;;;;;;4.25;2.78;;;9.20;99.90;;;;;;5452810;26;19999;-75
2024/04/19 05:40:40;;;;;;;8.15;3.45;;;9.20;99.90;;;;;;5421377;26;20344;-75
2024/04/19 05:43:07;;;;;;;7.32;3.58;;;9.20;99.90;;;;;;5452768;26;19998;-75
2024/04/19 05:45:35;;;;;;;13.82;4.15;;;9.30;99.90;;;;;;5453006;26;20003;-75
2024/04/19 05:48:02;;;;;;;9.23;3.33;;;9.30;99.90;;;;;;5452567;26;20336;-75
2024/04/19 05:50:31;;;;;;;8.55;3.78;;;9.30;99.90;;;;;;5452847;26;20524;-75
2024/04/19 05:52:58;;;;;;;9.57;3.88;;;9.40;99.90;;;;;;5452529;26;20472;-75
2024/04/19 05:55:25;;;;;;;8.00;3.33;;;9.40;99.90;;;;;;5452750;26;20003;-74
2024/04/19 05:57:53;;;;;;;13.75;2.83;;;9.40;99.90;;;;;;5451309;26;20313;-75
2024/04/19 06:00:20;;;;;;;10.07;3.97;;;9.50;99.90;;;;;;5452858;26;19994;-74
2024/04/19 06:02:47;;;;;;;4.10;3.08;;;9.60;99.90;;;;;;5455065;26;20439;-74
2024/04/19 06:05:14;;;;;;;7.20;2.97;;;9.60;99.90;;;;;;5449483;26;20071;-74
2024/04/19 06:07:41;;;;;;;5.45;3.10;;;9.70;99.90;;;;;;5452068;26;19995;-74
2024/04/19 06:10:08;;;;;;;3.67;2.40;;;9.80;99.90;;;;;;5452640;26;20066;-74
2024/04/19 06:12:35;;;;;;;6.53;3.25;;;9.90;99.90;;;;;;5420923;26;20067;-75
2024/04/19 06:15:02;;;;;;;4.88;2.42;;;10.00;99.90;;;;;;5450458;26;20392;-75
2024/04/19 06:17:30;;;;;;;7.85;3.45;;;10.10;99.90;;;;;;5452390;26;20021;-75
2024/04/19 06:19:57;;;;;;;11.90;2.88;;;10.20;99.90;;;;;;5450568;26;19999;-74
2024/04/19 06:22:24;;;;;;;8.80;2.92;;;10.20;99.90;;;;;;5450752;26;19998;-74
2024/04/19 06:24:51;;;;;;;5.80;2.70;;;10.30;99.90;;;;;;5449039;26;20007;-74
2024/04/19 06:27:18;;;;;;;3.90;2.03;;;10.30;99.90;;;;;;5450275;26;20013;-74
2024/04/19 06:29:45;;;;;;;2.70;2.33;;;10.40;99.90;;;;;;5450378;26;20007;-74
2024/04/19 06:32:12;;;;;;;3.17;2.30;;;10.40;99.90;;;;;;5450045;26;20049;-75
2024/04/19 06:34:39;;;;;;;10.35;2.65;;;10.40;99.90;;;;;;5452103;26;19999;-74
2024/04/19 06:37:06;;;;;;;6.20;3.03;;;10.30;99.90;;;;;;5452219;26;19995;-74
2024/04/19 06:39:33;;;;;;;9.57;2.45;;;10.30;99.90;;;;;;5450893;26;19995;-74
2024/04/19 06:42:01;;;;;;;6.57;2.70;;;10.30;99.90;;;;;;5452092;26;20003;-74
2024/04/19 06:44:28;;;;;;;9.60;2.53;;;10.30;99.90;;;;;;5450359;26;20386;-74
2024/04/19 06:46:55;;;;;;;9.98;3.20;;;10.20;99.90;;;;;;5450243;26;19995;-74
2024/04/19 06:49:23;;;;;;;4.35;2.40;;;10.10;99.90;;;;;;5451965;26;19995;-74
2024/04/19 06:51:50;;;;;;;12.68;3.25;;;10.10;99.90;;;;;;5450357;26;20098;-74
2024/04/19 06:54:17;;;;;;;3.08;2.13;;;10.10;99.90;;;;;;5451343;26;20467;-74
2024/04/19 06:56:44;;;;;;;14.38;2.33;;;10.10;99.90;;;;;;5449805;26;20014;-74
2024/04/19 06:59:11;;;;;;;8.27;2.25;;;10.10;99.90;;;;;;5449799;26;19999;-74
2024/04/19 07:01:38;;;;;;;8.85;2.40;;;10.30;99.90;;;;;;5451561;26;20076;-73
2024/04/19 07:04:05;;;;;;;3.92;2.28;;;10.70;99.90;;;;;;5451340;26;20451;-73
2024/04/19 07:06:33;;;;;;;7.85;2.45;;;11.00;99.90;;;;;;5451512;26;20057;-73
2024/04/19 07:09:04;;;;;;;7.32;3.33;;;11.10;99.90;;;;;;5449582;26;20071;-74
2024/04/19 07:11:31;;;;;;;7.65;2.15;;;11.10;99.90;;;;;;5451194;26;20011;-74
2024/04/19 07:13:58;;;;;;;6.32;2.13;;;11.00;99.90;;;;;;5449487;26;20326;-74
2024/04/19 07:16:25;;;;;;;6.75;2.25;;;11.00;99.90;;;;;;5451355;26;19995;-74
2024/04/19 07:18:52;;;;;;;6.70;3.30;;;10.90;99.90;;;;;;5451666;26;20079;-74
2024/04/19 07:21:19;;;;;;;5.68;2.60;;;10.80;99.90;;;;;;5449597;26;20005;-74
2024/04/19 07:23:46;;;;;;;7.85;2.45;;;10.80;99.90;;;;;;5479884;26;20067;-74
2024/04/19 07:26:13;;;;;;;4.60;2.67;;;10.80;99.90;;;;;;5451170;26;19999;-74
2024/04/19 07:28:40;;;;;;;3.03;2.33;;;10.90;99.90;;;;;;5451475;26;20003;-74
2024/04/19 07:31:08;;;;;;;5.95;1.20;;;11.10;99.90;;;;;;5449127;26;20007;-74
2024/04/19 07:33:35;;;;;;;5.68;2.85;;;11.30;99.90;;;;;;5449181;26;20452;-73
2024/04/19 07:36:02;;;;;;;5.68;1.30;;;11.50;99.90;;;;;;5450877;26;20459;-74
2024/04/19 07:38:29;;;;;;;7.93;2.92;;;11.50;99.90;;;;;;5482985;26;19998;-73
2024/04/19 07:41:02;;;;;;;6.65;1.38;;;11.60;99.90;;;;;;5452828;26;20014;-73
2024/04/19 07:43:30;;;;;;;5.65;2.33;;;11.80;99.90;;;;;;5454350;26;20505;-74
2024/04/19 07:45:57;;;;;;;6.47;2.28;;;11.90;99.90;;;;;;5454572;26;20056;-74
2024/04/19 07:48:24;;;;;;;5.70;2.90;;;12.00;99.90;;;;;;5454234;26;20003;-74
2024/04/19 07:50:51;;;;;;;7.18;4.07;;;11.90;99.90;;;;;;5454648;26;20007;-74
2024/04/19 07:53:20;;;;;;;1.77;1.42;;;11.90;99.90;;;;;;5454140;26;20462;-74
2024/04/19 07:55:48;;;;;;;3.20;2.75;;;11.90;99.90;;;;;;5454527;26;20030;-74
2024/04/19 07:58:15;;;;;;;6.43;2.20;;;11.90;99.90;;;;;;5452668;26;19996;-73
2024/04/19 08:00:44;;;;;;;5.07;1.38;;;12.00;99.90;;;;;;5454488;26;20328;-73
2024/04/19 08:03:11;;;;;;;6.97;2.50;;;12.00;99.90;;;;;;5454080;26;20077;-74
2024/04/19 08:05:38;;;;;;;3.17;2.50;;;12.10;99.90;;;;;;5454255;26;19998;-73
2024/04/19 08:08:06;;;;;;;4.38;2.40;;;12.40;99.90;;;;;;5452933;26;19994;-74
2024/04/19 08:10:33;;;;;;;7.32;1.73;;;12.70;99.90;;;;;;5454440;26;20542;-74
2024/04/19 08:13:00;;;;;;;3.83;2.00;;;12.80;99.90;;;;;;5452475;26;20031;-74
2024/04/19 08:15:28;;;;;;;4.30;2.25;;;13.20;99.90;;;;;;5452406;26;20013;-74
2024/04/19 08:17:55;;;;;;;3.15;1.88;;;13.60;99.90;;;;;;5452754;26;20080;-75
2024/04/19 08:20:22;;;;;;;6.65;1.75;;;13.80;99.90;;;;;;5454009;26;20031;-74
2024/04/19 08:22:49;;;;;;;5.75;2.17;;;13.90;99.90;;;;;;5454118;26;20011;-74
2024/04/19 08:25:16;;;;;;;2.90;1.40;;;13.80;99.90;;;;;;5482379;26;19999;-74
2024/04/19 08:27:43;;;;;;;3.33;1.27;;;13.90;99.90;;;;;;5452404;26;20049;-74
2024/04/19 08:30:13;;;;;;;4.75;1.50;;;14.20;99.90;;;;;;5454127;26;20006;-74
2024/04/19 08:32:40;;;;;;;3.67;2.28;;;14.40;99.90;;;;;;5452176;26;20026;-74
2024/04/19 08:35:08;;;;;;;3.45;1.65;;;14.30;99.90;;;;;;5482673;26;19995;-74
2024/04/19 08:37:35;;;;;;;6.18;2.25;;;14.10;99.90;;;;;;5452116;26;20006;-74
2024/04/19 08:40:02;;;;;;;5.15;1.20;;;13.90;99.90;;;;;;5453918;26;20654;-74
2024/04/19 08:42:29;;;;;;;5.05;2.75;;;13.80;99.50;;;;;;5422560;26;19999;-75
2024/04/19 08:44:58;;;;;;;4.13;1.75;;;13.90;99.90;;;;;;5454029;26;20005;-74
2024/04/19 08:47:26;;;;;;;4.57;1.60;;;14.00;99.80;;;;;;5421640;26;19995;-75
2024/04/19 08:49:56;;;;;;;4.18;2.15;;;14.00;99.50;;;;;;5452219;26;20031;-75
2024/04/19 08:52:24;;;;;;;4.00;2.10;;;14.10;99.10;;;;;;5451552;26;20011;-75
2024/04/19 08:54:57;;;;;;;2.33;1.30;;;14.20;99.10;;;;;;5422822;26;20509;-75
2024/04/19 08:57:26;;;;;;;3.42;1.15;;;14.60;99.00;;;;;;5451559;26;20018;-75
2024/04/19 08:59:55;;;;;;;2.85;1.13;;;15.30;99.90;;;;;;5453627;26;20487;-75
2024/04/19 09:02:28;;;;;;;4.28;1.70;;;16.00;98.80;;;;;;5481786;26;20440;-76
2024/04/19 09:04:55;;;;;;;5.38;1.80;;;16.40;97.20;;;;;;5451968;26;19998;-75
2024/04/19 09:07:22;;;;;;;4.32;1.20;;;16.50;94.90;;;;;;5453219;26;20010;-75
2024/04/19 09:09:51;;;;;;;3.38;1.92;;;16.70;95.90;;;;;;5453494;26;20011;-76
2024/04/19 09:12:19;;;;;;;3.22;1.52;;;16.90;95.90;;;;;;5451803;26;20014;-76
2024/04/19 09:14:50;;;;;;;3.45;1.60;;;16.80;92.70;;;;;;5453815;26;20009;-76
2024/04/19 09:17:17;;;;;;;3.08;1.45;;;16.80;94.80;;;;;;5453558;26;19999;-76
2024/04/19 09:19:45;;;;;;;7.90;2.15;;;16.80;94.30;;;;;;5422114;26;20068;-77
2024/04/19 09:22:12;;;;;;;3.47;1.80;;;16.70;93.10;;;;;;5451810;26;20013;-76
2024/04/19 09:24:40;;;;;;;7.13;3.85;;;16.70;93.90;;;;;;5451701;26;20023;-76
2024/04/19 09:27:07;;;;;;;3.10;1.75;;;16.30;93.20;;;;;;5453694;26;19995;-76
2024/04/19 09:29:39;;;;;;;5.38;1.10;;;15.80;93.10;;;;;;5422803;26;20314;-76
2024/04/19 09:32:06;;;;;;;2.03;1.92;;;15.30;94.50;;;;;;5453161;26;20075;-76
2024/04/19 09:34:33;;;;;;;2.75;1.50;;;15.20;94.60;;;;;;5481597;26;20549;-76
2024/04/19 09:37:02;;;;;;;5.00;1.95;;;14.90;94.80;;;;;;5421584;26;20011;-76
2024/04/19 09:39:30;;;;;;;4.18;2.30;;;14.70;94.90;;;;;;5450963;26;20485;-76
2024/04/19 09:41:58;;;;;;;4.63;1.65;;;14.60;94.70;;;;;;5481601;26;19999;-76
2024/04/19 09:44:26;;;;;;;4.75;2.10;;;14.60;95.00;;;;;;5452715;26;20017;-76
2024/04/19 09:47:04;;;;;;;2.97;1.90;;;14.90;96.20;;;;;;5421547;26;19999;-76
2024/04/19 09:49:32;;;;;;;7.82;2.35;;;15.30;94.60;;;;;;5451023;26;20023;-76
2024/04/19 09:52:03;;;;;;;6.40;2.08;;;15.40;94.60;;;;;;5452790;26;20007;-76
2024/04/19 09:54:36;;;;;;;4.05;2.10;;;15.60;93.10;;;;;;5452921;26;20003;-76
2024/04/19 09:57:05;;;;;;;4.10;2.38;;;15.50;93.30;;;;;;5453100;26;20027;-76
2024/04/19 09:59:35;;;;;;;5.32;3.03;;;15.30;92.70;;;;;;5450867;26;20223;-76
2024/04/19 10:02:03;;;;;;;5.45;2.60;;;14.90;93.20;;;;;;5452937;26;19999;-75
2024/04/19 10:04:34;;;;;;;3.38;1.90;;;14.50;93.80;;;;;;5452815;26;20006;-75
2024/04/19 10:07:04;;;;;;;5.25;2.72;;;13.70;94.60;;;;;;5453107;26;20006;-75
2024/04/19 10:09:33;;;;;;;2.88;1.38;;;12.90;95.60;;;;;;5421249;26;20081;-73
2024/04/19 10:12:02;;;;;;;6.88;2.28;;;12.10;96.20;;;;;;5452557;26;20337;-73
2024/04/19 10:14:29;;;;;;;8.05;3.85;;;11.40;97.30;;;;;;5452152;26;20071;-73
2024/04/19 10:16:57;;;;;;;4.28;1.50;;;11.00;98.50;;;;;;5452559;26;19999;-73
2024/04/19 10:19:25;;;;;;;3.45;1.60;;;10.60;99.70;;;;;;5452424;26;20031;-73
2024/04/19 10:21:56;;;;;;;4.45;1.58;;;10.40;99.90;;;;;;5421603;26;20483;-73
2024/04/19 10:24:24;;;;;;;2.25;1.83;;;10.30;99.90;;;;;;5450635;26;19999;-73
2024/04/19 10:26:55;;;;;;;2.28;2.03;;;10.20;99.90;;;;;;5420788;26;20585;-73
2024/04/19 10:29:26;;;;;;;3.70;1.73;;;10.20;99.90;;;;;;5450437;26;20026;-73
2024/04/19 10:31:55;;;;;;;5.10;2.25;;;10.20;99.90;;;;;;5480844;26;20432;-73
2024/04/19 10:34:23;;;;;;;2.47;2.00;;;10.30;99.90;;;;;;5450500;26;19994;-73
2024/04/19 10:36:54;;;;;;;3.30;2.15;;;10.50;99.90;;;;;;5450770;26;20386;-73
2024/04/19 10:39:21;;;;;;;2.75;2.17;;;10.60;99.90;;;;;;5452122;26;20362;-72
2024/04/19 10:41:53;;;;;;;3.53;1.30;;;10.80;99.90;;;;;;5450165;26;20067;-73
2024/04/19 10:44:21;;;;;;;5.20;1.83;;;11.00;99.90;;;;;;5452385;26;20009;-74
2024/04/19 10:46:51;;;;;;;3.13;1.10;;;11.00;99.90;;;;;;5450387;26;20502;-73
2024/04/19 10:49:20;;;;;;;2.47;2.10;;;10.90;99.90;;;;;;5450128;26;20014;-74
2024/04/19 10:51:50;;;;;;;3.63;1.48;;;10.70;99.90;;;;;;5480386;26;20317;-73
2024/04/19 10:54:18;;;;;;;3.72;2.17;;;10.50;99.90;;;;;;5451718;26;20035;-73
2024/04/19 10:56:45;;;;;;;3.03;1.33;;;10.50;99.90;;;;;;5451293;26;20039;-73
2024/04/19 10:59:12;;;;;;;2.72;1.50;;;10.60;99.90;;;;;;5451888;26;20076;-74
2024/04/19 11:01:41;;;;;;;3.58;2.10;;;10.60;99.90;;;;;;5451380;26;20352;-74
2024/04/19 11:04:09;;;;;;;3.70;1.67;;;10.50;99.90;;;;;;5449971;26;20003;-75
2024/04/19 11:06:36;;;;;;;4.10;2.50;;;10.30;99.90;;;;;;5449524;26;20056;-73
2024/04/19 11:09:04;;;;;;;2.13;1.90;;;9.90;99.90;;;;;;5451571;26;20007;-74
2024/04/19 11:11:37;;;;;;;5.90;2.85;;;9.70;99.90;;;;;;5454018;26;19996;-73
2024/04/19 11:14:11;;;;;;;2.35;2.13;;;9.60;99.90;;;;;;5453643;26;20005;-73
2024/04/19 11:16:38;;;;;;;3.08;2.08;;;9.60;99.90;;;;;;5483825;26;20002;-73
2024/04/19 11:19:05;;;;;;;4.38;2.55;;;9.70;99.90;;;;;;5455312;26;20013;-72
2024/04/19 11:21:33;;;;;;;1.95;1.85;;;9.80;99.90;;;;;;5455374;26;19998;-73
2024/04/19 11:24:02;;;;;;;4.30;3.33;;;9.90;99.90;;;;;;5453396;26;20334;-73
2024/04/19 11:26:29;;;;;;;3.08;2.55;;;10.00;99.90;;;;;;5453770;26;20425;-74
2024/04/19 11:28:56;;;;;;;2.83;2.60;;;10.10;99.90;;;;;;5454660;26;20010;-74
2024/04/19 11:31:25;;;;;;;2.90;1.88;;;10.10;99.90;;;;;;5454792;26;20352;-74
2024/04/19 11:33:54;;;;;;;10.52;3.30;;;10.10;99.90;;;;;;5454423;26;20071;-74
2024/04/19 11:36:23;;;;;;;5.05;2.88;;;10.10;99.90;;;;;;5454816;26;19999;-74
2024/04/19 11:38:51;;;;;;;8.20;2.60;;;10.10;99.90;;;;;;5452589;26;20013;-73
2024/04/19 11:41:18;;;;;;;4.65;1.65;;;10.20;99.90;;;;;;5423187;26;20427;-73
2024/04/19 11:43:45;;;;;;;7.22;3.15;;;10.20;99.90;;;;;;5454352;26;19999;-73
2024/04/19 11:46:20;;;;;;;5.72;2.75;;;10.40;99.90;;;;;;5454607;26;20011;-73
2024/04/19 11:48:47;;;;;;;7.95;4.03;;;10.90;99.90;;;;;;5454265;26;20011;-73
2024/04/19 11:51:15;;;;;;;3.95;2.47;;;11.60;99.90;;;;;;5468150;26;19998;-73
2024/04/19 11:53:42;;;;;;;9.27;3.55;;;12.40;99.90;;;;;;5456430;26;20437;-74
2024/04/19 11:56:09;;;;;;;6.10;2.65;;;12.80;99.90;;;;;;5484381;26;20010;-74
2024/04/19 11:58:36;;;;;;;5.28;2.70;;;12.70;99.90;;;;;;5462323;26;20448;-74
2024/04/19 12:01:04;;;;;;;4.43;2.22;;;12.40;99.90;;;;;;5482851;26;19999;-74
2024/04/19 12:03:33;;;;;;;6.88;4.55;;;11.80;99.90;;;;;;5468316;26;19999;-74
2024/04/19 12:06:00;;;;;;;3.92;2.78;;;11.20;99.90;;;;;;5475581;26;20010;-74
2024/04/19 12:08:27;;;;;;;9.05;3.65;;;10.70;99.90;;;;;;5453997;26;20060;-74
2024/04/19 12:10:54;;;;;;;11.63;5.10;;;10.40;99.90;;;;;;5458447;26;20002;-73
2024/04/19 12:13:21;;;;;;;7.93;4.07;;;10.20;99.90;;;;;;5453979;26;19999;-73
2024/04/19 12:15:51;;;;;;;4.93;2.50;;;10.10;99.90;;;;;;5453586;26;20002;-74
2024/04/19 12:18:38;;;;;;;6.78;2.53;;;10.50;99.90;;;;;;5488762;26;20355;-73
2024/04/19 12:21:06;;;;;;;8.68;3.97;;;11.00;99.90;;;;;;5481762;26;20075;-73
2024/04/19 12:23:33;;;;;;;7.38;2.92;;;11.40;99.90;;;;;;5437047;26;20013;-72
2024/04/19 12:26:01;;;;;;;6.97;2.63;;;11.40;99.90;;;;;;5451820;26;20013;-72
2024/04/19 12:28:28;;;;;;;7.57;3.67;;;11.20;99.90;;;;;;5482074;26;20038;-72
2024/04/19 12:30:55;;;;;;;7.80;3.08;;;11.40;99.90;;;;;;5434915;26;20026;-72
2024/04/19 12:33:23;;;;;;;4.88;3.00;;;11.70;99.90;;;;;;5452005;26;20452;-73
2024/04/19 12:35:50;;;;;;;3.75;2.88;;;12.00;99.90;;;;;;5480112;26;19999;-72
2024/04/19 12:38:17;;;;;;;3.92;2.83;;;12.00;99.80;;;;;;5485728;26;20003;-72
2024/04/19 12:40:44;;;;;;;7.63;2.65;;;11.80;98.90;;;;;;5480171;26;20014;-73
2024/04/19 12:43:12;;;;;;;4.65;2.35;;;11.80;99.90;;;;;;5470903;26;20006;-73
2024/04/19 12:45:39;;;;;;;4.32;2.88;;;11.90;98.80;;;;;;5466672;26;20009;-73
2024/04/19 12:48:07;;;;;;;4.72;2.17;;;12.20;98.80;;;;;;5481527;26;20006;-73
2024/04/19 12:50:35;;;;;;;8.18;2.50;;;12.60;96.60;;;;;;5459491;26;19998;-73
2024/04/19 12:53:03;;;;;;;6.32;2.92;;;12.60;94.30;;;;;;5481901;26;20030;-73
2024/04/19 12:55:35;;;;;;;5.43;2.85;;;12.50;95.20;;;;;;5437056;26;20007;-72
2024/04/19 12:58:02;;;;;;;6.00;2.53;;;12.60;95.00;;;;;;5421632;26;19998;-72
2024/04/19 13:00:29;;;;;;;4.30;2.55;;;13.00;97.50;;;;;;5481669;26;20052;-72
2024/04/19 13:02:57;;;;;;;6.60;2.70;;;13.40;96.40;;;;;;5451208;26;20025;-73